Time;durP1;ratioP1;P1;durP2;ratioP2;P2;SDS_P1;SDS_P2;PMS_P1;PMS_P2;Temp;Humidity;BMP_temperature;BMP_pressure;BME280_temperature;BME280_humidity;BME280_pressure;Samples;Min_cycle;Max_cycle;Signal;HPM_P1;HPM_P2
2023/09/10 00:01:14;;;;;;;48.25;33.47;;;15.70;99.90;;;;;;8166243;29;20031;-79
2023/09/10 00:05:15;;;;;;;47.83;34.03;;;15.70;99.90;;;;;;8170519;29;20023;-79
2023/09/10 00:09:15;;;;;;;49.40;37.40;;;15.80;99.90;;;;;;8161884;29;20028;-79
2023/09/10 00:13:16;;;;;;;41.88;32.40;;;15.80;99.90;;;;;;8162273;29;20027;-79
2023/09/10 00:17:16;;;;;;;35.35;29.60;;;15.70;99.90;;;;;;8152158;29;20114;-79
2023/09/10 00:21:17;;;;;;;42.53;30.90;;;15.60;99.90;;;;;;8169644;29;20503;-79
2023/09/10 00:25:18;;;;;;;41.65;32.10;;;15.60;99.90;;;;;;8159537;29;20054;-79
2023/09/10 00:29:18;;;;;;;37.08;30.45;;;15.40;99.90;;;;;;8168844;29;20023;-79
2023/09/10 00:33:19;;;;;;;33.33;26.92;;;15.50;99.90;;;;;;8179016;29;20061;-79
2023/09/10 00:37:19;;;;;;;34.35;27.33;;;15.50;99.90;;;;;;8164667;28;20023;-79
2023/09/10 00:41:20;;;;;;;41.75;29.77;;;15.40;99.90;;;;;;8157328;29;20028;-79
2023/09/10 00:45:20;;;;;;;35.22;27.75;;;15.40;99.90;;;;;;8166932;29;20534;-79
2023/09/10 00:49:21;;;;;;;34.47;27.15;;;15.50;99.90;;;;;;8179786;29;20027;-79
2023/09/10 00:53:22;;;;;;;27.02;23.50;;;15.50;99.90;;;;;;8192447;29;20027;-79
2023/09/10 00:57:24;;;;;;;39.78;28.45;;;15.40;99.90;;;;;;8188746;29;20525;-79
2023/09/10 01:01:25;;;;;;;35.22;27.83;;;15.40;99.90;;;;;;8167361;29;20034;-79
2023/09/10 01:05:26;;;;;;;34.28;26.52;;;15.40;99.90;;;;;;8184103;29;20016;-79
2023/09/10 01:09:26;;;;;;;36.97;28.88;;;15.30;99.90;;;;;;8188998;29;20027;-79
2023/09/10 01:13:38;;;;;;;45.58;35.78;;;15.30;99.90;;;;;;8174429;29;20100;-79
2023/09/10 01:17:47;;;;;;;42.95;33.42;;;15.40;99.90;;;;;;8161054;29;20042;-79
2023/09/10 01:21:57;;;;;;;36.58;29.58;;;15.30;99.90;;;;;;8175814;29;20019;-79
2023/09/10 01:25:57;;;;;;;34.90;28.05;;;15.30;99.90;;;;;;8184460;29;20044;-79
2023/09/10 01:29:58;;;;;;;36.67;26.63;;;15.20;99.90;;;;;;8175449;29;20027;-79
2023/09/10 01:34:03;;;;;;;36.80;26.48;;;15.20;99.90;;;;;;8170993;29;20024;-81
2023/09/10 01:38:12;;;;;;;33.70;25.88;;;15.10;99.90;;;;;;8190499;29;20027;-79
2023/09/10 01:42:14;;;;;;;33.58;26.38;;;15.00;99.90;;;;;;8167394;28;20043;-80
2023/09/10 01:46:15;;;;;;;42.92;30.42;;;14.90;99.90;;;;;;8173029;29;20076;-79
2023/09/10 01:50:16;;;;;;;40.83;31.65;;;14.90;99.90;;;;;;8159594;29;20024;-80
2023/09/10 01:54:17;;;;;;;40.40;31.10;;;14.90;99.90;;;;;;8168172;29;20126;-79
2023/09/10 01:58:18;;;;;;;36.20;28.58;;;14.80;99.90;;;;;;8173210;29;20034;-79
2023/09/10 02:02:18;;;;;;;37.55;30.10;;;14.80;99.90;;;;;;8170593;29;20023;-80
2023/09/10 02:06:19;;;;;;;46.90;33.58;;;14.80;99.90;;;;;;8170504;29;20145;-80
2023/09/10 02:10:19;;;;;;;38.47;27.80;;;14.80;99.90;;;;;;8179351;29;20039;-80
2023/09/10 02:14:20;;;;;;;37.88;28.05;;;14.80;99.90;;;;;;8167553;29;20102;-80
2023/09/10 02:18:22;;;;;;;36.22;27.67;;;14.70;99.90;;;;;;8169956;29;20480;-80
2023/09/10 02:22:22;;;;;;;35.88;26.55;;;14.60;99.90;;;;;;8171646;29;20703;-80
2023/09/10 02:26:23;;;;;;;39.65;31.67;;;14.50;99.90;;;;;;8163998;29;20050;-80
2023/09/10 02:30:23;;;;;;;38.05;29.63;;;14.50;99.90;;;;;;8165329;29;20538;-78
2023/09/10 02:34:24;;;;;;;34.90;27.67;;;14.50;99.90;;;;;;8163119;29;20472;-80
2023/09/10 02:38:24;;;;;;;37.10;28.55;;;14.50;99.90;;;;;;8180761;29;20043;-79
2023/09/10 02:42:25;;;;;;;36.97;27.10;;;14.40;99.90;;;;;;8178145;28;20039;-79
2023/09/10 02:46:27;;;;;;;36.22;27.27;;;14.40;99.90;;;;;;8166715;29;20027;-80
2023/09/10 02:50:28;;;;;;;35.40;27.63;;;14.30;99.90;;;;;;8153303;29;20024;-79
2023/09/10 02:54:29;;;;;;;31.75;25.67;;;14.40;99.90;;;;;;8160478;29;20078;-77
2023/09/10 02:58:30;;;;;;;31.23;25.40;;;14.30;99.90;;;;;;8166640;29;20050;-80
2023/09/10 03:02:31;;;;;;;31.80;25.75;;;14.30;99.90;;;;;;8157397;29;20507;-80
2023/09/10 03:06:31;;;;;;;37.17;26.98;;;14.20;99.90;;;;;;8164306;29;20024;-79
2023/09/10 03:10:34;;;;;;;37.47;26.27;;;14.20;99.90;;;;;;8171154;29;20027;-80
2023/09/10 03:14:35;;;;;;;34.20;24.83;;;14.10;99.90;;;;;;8175249;29;20399;-78
2023/09/10 03:18:35;;;;;;;33.22;26.27;;;14.00;99.90;;;;;;8161439;29;20044;-79
2023/09/10 03:22:37;;;;;;;30.95;23.05;;;13.90;99.90;;;;;;8158288;29;20036;-80
2023/09/10 03:26:37;;;;;;;35.58;26.42;;;13.90;99.90;;;;;;8163705;29;20035;-80
2023/09/10 03:30:38;;;;;;;31.33;25.92;;;13.90;99.90;;;;;;8168282;29;20500;-80
2023/09/10 03:34:38;;;;;;;34.03;27.02;;;14.00;99.90;;;;;;8157086;29;20082;-80
2023/09/10 03:38:39;;;;;;;37.92;25.55;;;14.00;99.90;;;;;;8166597;29;20479;-80
2023/09/10 03:42:39;;;;;;;33.28;24.52;;;13.90;99.90;;;;;;8162874;29;20050;-80
2023/09/10 03:46:40;;;;;;;39.88;28.38;;;13.80;99.90;;;;;;8161384;29;20038;-80
2023/09/10 03:50:41;;;;;;;30.77;24.40;;;13.80;99.90;;;;;;8171265;29;20015;-80
2023/09/10 03:54:41;;;;;;;32.60;24.33;;;13.80;99.90;;;;;;8172389;29;20123;-79
2023/09/10 03:58:42;;;;;;;33.15;24.65;;;13.80;99.90;;;;;;8186673;29;20058;-80
2023/09/10 04:02:42;;;;;;;31.38;25.75;;;13.80;99.90;;;;;;8167839;29;20064;-79
2023/09/10 04:06:43;;;;;;;35.30;26.35;;;13.70;99.90;;;;;;8187881;29;20027;-80
2023/09/10 04:10:43;;;;;;;36.85;27.63;;;13.70;99.90;;;;;;8167997;29;20110;-80
2023/09/10 04:14:44;;;;;;;34.22;25.85;;;13.70;99.90;;;;;;8160927;29;20075;-80
2023/09/10 04:18:45;;;;;;;32.83;25.85;;;13.80;99.90;;;;;;8166498;29;20217;-80
2023/09/10 04:22:46;;;;;;;34.60;27.58;;;13.70;99.90;;;;;;8156024;29;20032;-80
2023/09/10 04:26:47;;;;;;;37.30;25.42;;;13.80;99.90;;;;;;8162074;29;20028;-79
2023/09/10 04:30:48;;;;;;;34.67;26.15;;;13.70;99.90;;;;;;8167990;29;20399;-80
2023/09/10 04:34:48;;;;;;;30.40;24.52;;;13.80;99.90;;;;;;8166095;29;20411;-80
2023/09/10 04:38:49;;;;;;;28.25;22.88;;;13.70;99.90;;;;;;8154495;29;20038;-80
2023/09/10 04:42:52;;;;;;;31.55;24.55;;;13.70;99.90;;;;;;8161436;29;20027;-79
2023/09/10 04:46:54;;;;;;;34.58;25.85;;;13.70;99.90;;;;;;8164364;29;20046;-80
2023/09/10 04:50:55;;;;;;;33.25;26.13;;;13.70;99.90;;;;;;8168847;29;20051;-79
2023/09/10 04:54:55;;;;;;;38.10;29.15;;;13.70;99.90;;;;;;8180103;29;20035;-80
2023/09/10 04:58:56;;;;;;;39.47;28.42;;;13.70;99.90;;;;;;8186014;29;20031;-80
2023/09/10 05:02:56;;;;;;;38.13;27.35;;;13.70;99.90;;;;;;8171840;29;20027;-79
2023/09/10 05:06:58;;;;;;;36.83;27.42;;;13.70;99.90;;;;;;8170586;29;20027;-78
2023/09/10 05:10:58;;;;;;;39.40;27.98;;;13.70;99.90;;;;;;8174721;29;20024;-79
2023/09/10 05:14:59;;;;;;;46.63;30.50;;;13.70;99.90;;;;;;8185267;29;21639;-80
2023/09/10 05:18:59;;;;;;;40.67;30.35;;;13.80;99.90;;;;;;8180129;29;20031;-79
2023/09/10 05:23:00;;;;;;;51.78;34.53;;;13.90;99.90;;;;;;8160450;29;20076;-79
2023/09/10 05:27:00;;;;;;;41.00;28.95;;;14.00;99.90;;;;;;8177873;28;20451;-79
2023/09/10 05:31:04;;;;;;;44.53;29.63;;;14.20;99.90;;;;;;8153871;29;20063;-77
2023/09/10 05:35:05;;;;;;;40.58;29.08;;;14.30;99.90;;;;;;8170752;29;20050;-79
2023/09/10 05:39:06;;;;;;;35.00;25.77;;;14.30;99.90;;;;;;8170255;29;20036;-79
2023/09/10 05:43:06;;;;;;;34.47;25.30;;;14.50;99.90;;;;;;8159832;29;20032;-79
2023/09/10 05:47:07;;;;;;;33.78;24.55;;;14.70;99.90;;;;;;8167931;29;20034;-79
2023/09/10 05:51:07;;;;;;;31.08;24.17;;;14.70;99.90;;;;;;8171051;29;20031;-79
2023/09/10 05:55:08;;;;;;;29.23;24.23;;;14.80;99.90;;;;;;8171076;29;20720;-79
2023/09/10 05:59:08;;;;;;;29.58;24.20;;;15.00;99.90;;;;;;8174942;29;20043;-78
2023/09/10 06:03:09;;;;;;;30.48;23.17;;;15.00;99.90;;;;;;8184281;29;20039;-78
2023/09/10 06:07:10;;;;;;;29.02;23.45;;;15.20;99.90;;;;;;8192572;29;20038;-78
2023/09/10 06:11:11;;;;;;;27.95;22.90;;;15.30;99.90;;;;;;8168262;29;20062;-80
2023/09/10 06:15:11;;;;;;;25.27;22.42;;;15.50;99.90;;;;;;8160784;29;20094;-80
2023/09/10 06:19:12;;;;;;;23.83;20.65;;;15.60;99.90;;;;;;8157565;29;20036;-80
2023/09/10 06:23:12;;;;;;;27.50;21.35;;;15.90;99.90;;;;;;8165120;29;20408;-80
2023/09/10 06:27:13;;;;;;;23.00;19.80;;;16.10;99.90;;;;;;8176217;29;20444;-80
2023/09/10 06:31:13;;;;;;;24.38;19.27;;;16.30;99.90;;;;;;8168896;29;20024;-80
2023/09/10 06:35:14;;;;;;;23.92;20.73;;;16.50;99.90;;;;;;8188357;29;20035;-80
2023/09/10 06:39:14;;;;;;;28.65;21.10;;;16.70;99.90;;;;;;8183203;29;20499;-80
2023/09/10 06:43:15;;;;;;;22.25;19.88;;;17.10;99.90;;;;;;8162482;29;20066;-80
2023/09/10 06:47:16;;;;;;;20.25;17.35;;;17.40;99.90;;;;;;8173988;29;20038;-79
2023/09/10 06:51:16;;;;;;;22.98;19.30;;;17.80;99.90;;;;;;8161801;29;20070;-80
2023/09/10 06:55:17;;;;;;;21.55;18.88;;;18.20;99.90;;;;;;8158589;29;20153;-80
2023/09/10 06:59:17;;;;;;;19.42;17.40;;;18.90;99.90;;;;;;8154323;29;20436;-78
2023/09/10 07:03:18;;;;;;;18.55;16.63;;;19.10;99.90;;;;;;8163701;29;20079;-78
2023/09/10 07:07:18;;;;;;;19.63;17.58;;;19.40;99.90;;;;;;8161220;29;20024;-80
2023/09/10 07:11:19;;;;;;;17.55;15.80;;;19.90;99.90;;;;;;8177001;29;20523;-80
2023/09/10 07:15:19;;;;;;;17.42;15.20;;;20.40;99.90;;;;;;8166014;29;20123;-78
2023/09/10 07:19:20;;;;;;;17.67;15.63;;;20.80;99.90;;;;;;8165075;29;20884;-79
2023/09/10 07:23:20;;;;;;;17.40;15.70;;;21.40;99.90;;;;;;8167212;29;20031;-80
2023/09/10 07:27:21;;;;;;;18.52;16.58;;;21.40;99.90;;;;;;8158217;29;20031;-79
2023/09/10 07:31:21;;;;;;;17.73;15.88;;;21.20;99.90;;;;;;8159861;29;20035;-79
2023/09/10 07:47:48;;;;;;;17.48;15.68;;;22.20;99.90;;;;;;8231770;28;20116;-87
2023/09/10 07:51:48;;;;;;;18.98;16.90;;;22.60;99.90;;;;;;8247483;28;20026;-87
2023/09/10 07:55:49;;;;;;;17.75;15.95;;;22.80;99.90;;;;;;8260714;28;20030;-86
2023/09/10 07:59:50;;;;;;;18.67;16.83;;;22.50;99.90;;;;;;8239391;28;20101;-88
2023/09/10 08:03:50;;;;;;;18.75;16.85;;;22.80;99.90;;;;;;8241017;28;20065;-87
2023/09/10 08:07:51;;;;;;;21.10;17.83;;;23.10;99.90;;;;;;8251129;28;20042;-87
2023/09/10 08:11:52;;;;;;;19.88;17.75;;;23.60;99.90;;;;;;8243806;28;20030;-87
2023/09/10 08:15:52;;;;;;;19.55;17.48;;;23.80;99.90;;;;;;8239061;28;20494;-90
2023/09/10 08:19:53;;;;;;;18.08;16.20;;;23.90;99.90;;;;;;8256431;28;20131;-88
2023/09/10 08:23:53;;;;;;;17.50;15.60;;;24.40;99.90;;;;;;8235954;28;20089;-87
2023/09/10 08:27:54;;;;;;;18.50;15.38;;;24.90;99.90;;;;;;8231113;28;20042;-88
2023/09/10 08:31:55;;;;;;;16.30;14.60;;;25.80;99.90;;;;;;8233002;28;20216;-90
2023/09/10 08:35:56;;;;;;;18.63;15.35;;;26.10;99.90;;;;;;8243093;28;20026;-88
2023/09/10 08:39:57;;;;;;;16.52;14.75;;;25.90;99.90;;;;;;8253767;28;20478;-88
2023/09/10 08:43:59;;;;;;;16.70;14.55;;;25.90;99.90;;;;;;8235377;28;20506;-89
2023/09/10 08:48:01;;;;;;;15.30;13.77;;;25.80;99.90;;;;;;8241758;28;20062;-88
2023/09/10 08:52:02;;;;;;;15.10;13.60;;;26.20;99.90;;;;;;8247978;28;20538;-89
2023/09/10 08:56:04;;;;;;;15.05;13.23;;;26.40;99.90;;;;;;8255422;28;20034;-89
2023/09/10 09:00:15;;;;;;;15.10;13.57;;;26.50;99.90;;;;;;8250900;28;20045;-89
2023/09/10 09:04:16;;;;;;;14.90;13.40;;;26.90;99.90;;;;;;8247639;28;20038;-89
2023/09/10 09:08:23;;;;;;;14.57;13.07;;;27.10;99.90;;;;;;8254930;28;20026;-89
2023/09/10 09:12:24;;;;;;;14.25;12.73;;;27.40;99.90;;;;;;8224307;28;20049;-89
2023/09/10 09:16:25;;;;;;;13.77;12.38;;;27.80;99.90;;;;;;8234126;28;20478;-90
2023/09/10 09:20:30;;;;;;;13.65;12.05;;;27.80;99.90;;;;;;8217679;28;20038;-89
2023/09/10 09:24:31;;;;;;;13.32;11.82;;;27.80;99.90;;;;;;8237075;28;20031;-89
2023/09/10 09:28:33;;;;;;;13.93;12.50;;;28.00;99.90;;;;;;8214504;28;20111;-92
2023/09/10 09:32:35;;;;;;;13.02;11.70;;;27.90;99.90;;;;;;8213241;28;20526;-87
2023/09/10 09:36:39;;;;;;;12.50;11.30;;;28.20;99.90;;;;;;8240577;28;20023;-93
2023/09/10 09:40:40;;;;;;;11.57;10.35;;;28.60;99.90;;;;;;8250033;28;20031;-90
2023/09/10 09:44:44;;;;;;;14.23;10.25;;;28.90;99.90;;;;;;8232814;28;20177;-89
2023/09/10 09:48:44;;;;;;;11.68;10.18;;;29.30;99.90;;;;;;8232916;28;20608;-90
2023/09/10 09:52:51;;;;;;;11.88;10.68;;;29.50;99.90;;;;;;8232955;28;20031;-89
2023/09/10 09:56:52;;;;;;;11.68;10.52;;;29.80;99.90;;;;;;8256936;28;20031;-89
2023/09/10 10:00:52;;;;;;;11.90;10.60;;;29.90;99.90;;;;;;8229128;28;20035;-89
2023/09/10 10:04:53;;;;;;;11.38;10.18;;;30.00;99.90;;;;;;8227932;28;20740;-92
2023/09/10 10:08:54;;;;;;;11.02;9.93;;;30.20;99.90;;;;;;8241692;28;20558;-91
2023/09/10 10:12:56;;;;;;;15.55;13.93;;;30.50;99.90;;;;;;8240194;28;20101;-89
2023/09/10 10:17:03;;;;;;;11.75;10.63;;;30.80;99.90;;;;;;8224790;28;20051;-89
2023/09/10 10:21:05;;;;;;;11.50;10.35;;;31.20;99.90;;;;;;8242206;28;20026;-89
2023/09/10 10:25:07;;;;;;;10.95;9.95;;;32.20;99.90;;;;;;8226177;28;20421;-89
2023/09/10 10:29:09;;;;;;;12.77;10.70;;;32.30;99.90;;;;;;8226561;28;20022;-90
2023/09/10 10:33:12;;;;;;;10.18;9.18;;;32.20;99.90;;;;;;8240691;28;20015;-89
2023/09/10 10:37:24;;;;;;;12.63;10.27;;;31.90;99.90;;;;;;8240007;28;20031;-89
2023/09/10 10:41:26;;;;;;;11.00;9.80;;;32.60;99.90;;;;;;8225402;28;20403;-90
2023/09/10 10:45:30;;;;;;;10.75;9.63;;;33.10;99.90;;;;;;8239310;28;20038;-91
2023/09/10 10:49:32;;;;;;;10.45;9.45;;;34.00;99.90;;;;;;8222645;28;20033;-90
2023/09/10 10:53:34;;;;;;;11.35;9.90;;;34.10;99.90;;;;;;8222584;28;20026;-89
2023/09/10 10:57:35;;;;;;;10.35;9.25;;;32.70;99.90;;;;;;8246013;28;20109;-89
2023/09/10 11:01:38;;;;;;;10.18;9.23;;;32.00;99.90;;;;;;8239685;28;20041;-90
2023/09/10 11:06:07;;;;;;;12.13;9.73;;;32.30;99.90;;;;;;8237973;28;20034;-89
2023/09/10 11:10:26;;;;;;;10.50;9.55;;;32.10;99.90;;;;;;8213835;28;20043;-90
2023/09/10 11:14:27;;;;;;;10.40;9.37;;;31.30;99.90;;;;;;8221837;28;20525;-87
2023/09/10 11:18:37;;;;;;;10.38;9.32;;;31.60;99.90;;;;;;8221556;28;20043;-85
2023/09/10 11:23:09;;;;;;;10.57;9.48;;;32.30;99.90;;;;;;8220824;28;20093;-87
2023/09/10 11:27:23;;;;;;;11.63;10.30;;;32.90;99.90;;;;;;8236525;28;20115;-86
2023/09/10 11:31:33;;;;;;;11.27;9.73;;;32.30;99.90;;;;;;8216722;28;20078;-86
2023/09/10 11:35:37;;;;;;;10.47;9.37;;;33.20;99.90;;;;;;8220294;28;20034;-85
2023/09/10 11:39:38;;;;;;;13.68;9.73;;;32.00;99.90;;;;;;8220901;28;20278;-86
2023/09/10 11:43:38;;;;;;;10.70;9.07;;;31.10;99.90;;;;;;8235981;28;20050;-87
2023/09/10 11:47:43;;;;;;;10.32;9.43;;;31.80;99.90;;;;;;8220078;28;20031;-86
2023/09/10 11:51:48;;;;;;;10.43;9.13;;;32.10;99.90;;;;;;8237057;28;20061;-86
2023/09/10 11:55:49;;;;;;;11.07;10.00;;;33.00;99.90;;;;;;8222021;28;20027;-86
2023/09/10 11:59:50;;;;;;;10.43;9.43;;;31.80;99.90;;;;;;8234323;28;20066;-87
2023/09/10 12:03:51;;;;;;;10.73;9.63;;;30.90;99.90;;;;;;8214098;28;20046;-87
2023/09/10 12:07:51;;;;;;;9.70;8.75;;;33.20;99.90;;;;;;8218898;28;20515;-87
2023/09/10 12:11:54;;;;;;;10.77;8.85;;;32.90;99.90;;;;;;8231844;28;20391;-86
2023/09/10 12:15:54;;;;;;;11.43;9.02;;;32.20;99.90;;;;;;8223967;28;20030;-86
2023/09/10 12:19:56;;;;;;;9.55;7.90;;;33.30;99.90;;;;;;8208118;28;20518;-86
2023/09/10 12:23:57;;;;;;;9.82;8.20;;;35.90;99.90;;;;;;8209106;28;20019;-86
2023/09/10 12:27:58;;;;;;;8.43;7.63;;;38.30;97.20;;;;;;8210270;28;20244;-86
2023/09/10 12:31:59;;;;;;;9.35;7.80;;;39.20;90.20;;;;;;8209004;28;20301;-86
2023/09/10 12:36:02;;;;;;;8.40;7.60;;;39.10;88.30;;;;;;8209544;28;20016;-87
2023/09/10 12:40:09;;;;;;;8.02;7.32;;;39.70;83.90;;;;;;8210208;28;20358;-87
2023/09/10 12:44:10;;;;;;;7.90;7.10;;;39.70;75.50;;;;;;8210407;28;20514;-87
2023/09/10 12:48:11;;;;;;;9.10;7.68;;;39.60;80.00;;;;;;8225502;28;20225;-87
2023/09/10 12:52:12;;;;;;;9.02;8.23;;;39.60;73.20;;;;;;8225764;28;20259;-87
2023/09/10 12:56:13;;;;;;;11.30;7.88;;;37.90;78.00;;;;;;8215900;28;20200;-87
2023/09/10 13:00:16;;;;;;;8.73;7.78;;;35.40;82.80;;;;;;8227944;28;20278;-87
2023/09/10 13:04:18;;;;;;;8.43;7.63;;;34.60;90.90;;;;;;8213036;28;20042;-87
2023/09/10 13:08:18;;;;;;;8.30;7.50;;;36.40;87.30;;;;;;8225777;28;20038;-86
2023/09/10 13:12:21;;;;;;;9.13;7.53;;;37.60;83.40;;;;;;8208681;28;20471;-88
2023/09/10 13:16:22;;;;;;;8.82;7.93;;;36.00;82.50;;;;;;8223853;28;20093;-87
2023/09/10 13:20:23;;;;;;;9.05;7.90;;;34.10;92.70;;;;;;8225399;28;20609;-87
2023/09/10 13:24:24;;;;;;;9.02;7.57;;;35.50;84.90;;;;;;8228430;28;20032;-86
2023/09/10 13:28:25;;;;;;;9.35;7.40;;;36.20;90.00;;;;;;8225690;28;20027;-87
2023/09/10 13:32:25;;;;;;;7.85;7.05;;;38.30;78.00;;;;;;8232214;28;20672;-86
2023/09/10 13:36:26;;;;;;;8.43;7.60;;;40.10;75.40;;;;;;8213832;28;20034;-87
2023/09/10 13:40:27;;;;;;;7.88;7.18;;;41.10;69.10;;;;;;8233547;28;20054;-87
2023/09/10 13:44:27;;;;;;;7.78;7.07;;;41.90;63.80;;;;;;8222169;28;20031;-87
2023/09/10 13:48:28;;;;;;;8.00;7.20;;;41.90;64.90;;;;;;8244993;28;20062;-86
2023/09/10 13:52:28;;;;;;;7.75;6.88;;;42.20;64.60;;;;;;8236109;28;20019;-86
2023/09/10 13:56:31;;;;;;;8.35;7.47;;;42.20;64.10;;;;;;8258834;28;20035;-86
2023/09/10 14:00:32;;;;;;;7.80;7.03;;;42.50;60.00;;;;;;8251275;28;20022;-86
2023/09/10 14:04:32;;;;;;;9.15;7.53;;;42.90;58.20;;;;;;8254157;28;20054;-86
2023/09/10 14:08:33;;;;;;;7.95;7.25;;;42.80;63.20;;;;;;8227387;28;20730;-88
2023/09/10 14:12:33;;;;;;;8.10;7.30;;;42.20;57.20;;;;;;8240880;28;20033;-86
2023/09/10 14:16:34;;;;;;;7.15;6.40;;;43.10;58.20;;;;;;8242636;28;20030;-86
2023/09/10 14:20:34;;;;;;;8.00;6.78;;;43.20;54.40;;;;;;8226253;28;20022;-86
2023/09/10 14:24:35;;;;;;;9.18;6.82;;;42.60;54.80;;;;;;8240912;28;20031;-85
2023/09/10 14:28:36;;;;;;;7.72;6.07;;;41.30;57.50;;;;;;8224030;28;20024;-90
2023/09/10 14:32:36;;;;;;;7.82;6.60;;;41.60;59.20;;;;;;8224019;28;20022;-90
2023/09/10 14:36:37;;;;;;;7.38;6.68;;;41.40;59.00;;;;;;8240322;28;20062;-91
2023/09/10 14:40:37;;;;;;;7.43;6.72;;;42.00;54.10;;;;;;8224566;28;20027;-89
2023/09/10 14:44:38;;;;;;;7.18;6.40;;;40.00;56.30;;;;;;8240275;28;20068;-89
2023/09/10 14:48:38;;;;;;;7.28;6.53;;;40.00;62.50;;;;;;8220519;28;20038;-89
2023/09/10 14:52:43;;;;;;;7.13;6.43;;;40.90;57.60;;;;;;8223567;28;20034;-89
2023/09/10 14:56:43;;;;;;;7.72;6.70;;;41.20;56.70;;;;;;8223320;28;20252;-90
2023/09/10 15:00:44;;;;;;;7.30;6.47;;;42.50;58.20;;;;;;8222455;28;20030;-91
2023/09/10 15:04:44;;;;;;;7.93;7.20;;;42.20;57.00;;;;;;8225173;28;20098;-86
2023/09/10 15:08:45;;;;;;;7.30;6.60;;;38.70;58.00;;;;;;8219572;28;20034;-87
2023/09/10 15:12:45;;;;;;;7.95;6.65;;;35.40;64.00;;;;;;8220175;28;20062;-87
2023/09/10 15:16:46;;;;;;;8.63;7.00;;;33.30;78.20;;;;;;8234802;28;20035;-86
2023/09/10 15:20:50;;;;;;;8.65;7.07;;;32.10;76.90;;;;;;8236191;28;20313;-87
2023/09/10 15:24:51;;;;;;;8.00;7.22;;;31.30;79.80;;;;;;8219992;28;20018;-86
2023/09/10 15:28:51;;;;;;;8.52;6.85;;;30.50;83.90;;;;;;8218943;28;20027;-87
2023/09/10 15:32:52;;;;;;;7.88;7.18;;;29.80;91.30;;;;;;8221768;28;20094;-87
2023/09/10 15:36:52;;;;;;;8.18;7.38;;;29.50;93.80;;;;;;8216890;28;20031;-85
2023/09/10 15:40:54;;;;;;;7.85;7.07;;;29.70;92.80;;;;;;8231022;28;20082;-87
2023/09/10 15:44:55;;;;;;;9.82;7.25;;;30.70;92.70;;;;;;8233698;28;20070;-86
2023/09/10 15:48:58;;;;;;;7.90;7.20;;;31.70;87.30;;;;;;8215241;28;20090;-87
2023/09/10 15:52:59;;;;;;;8.38;6.47;;;30.80;86.30;;;;;;8216764;28;20117;-86
2023/09/10 15:57:00;;;;;;;9.52;7.68;;;29.90;91.20;;;;;;8217303;28;20026;-86
2023/09/10 16:01:04;;;;;;;7.88;7.18;;;29.10;96.90;;;;;;8220024;28;20069;-85
2023/09/10 16:05:06;;;;;;;8.15;7.35;;;28.50;99.20;;;;;;8220163;28;20049;-85
2023/09/10 16:09:07;;;;;;;8.15;7.35;;;28.00;99.30;;;;;;8219570;28;20596;-85
2023/09/10 16:13:07;;;;;;;8.38;7.50;;;27.60;99.90;;;;;;8235005;28;20106;-86
2023/09/10 16:17:08;;;;;;;8.40;7.60;;;27.30;99.80;;;;;;8220364;28;20049;-87
2023/09/10 16:21:09;;;;;;;9.15;8.05;;;27.10;99.90;;;;;;8218968;28;20025;-86
2023/09/10 16:25:09;;;;;;;8.80;8.00;;;26.90;99.90;;;;;;8232855;28;20113;-85
2023/09/10 16:29:10;;;;;;;8.35;7.53;;;26.80;99.90;;;;;;8219377;28;20123;-86
2023/09/10 16:33:10;;;;;;;9.25;7.40;;;26.50;99.90;;;;;;8218615;28;20044;-85
2023/09/10 16:37:11;;;;;;;10.75;7.40;;;26.30;99.90;;;;;;8219139;28;20388;-86
2023/09/10 16:41:11;;;;;;;8.02;7.22;;;26.10;99.90;;;;;;8234356;28;20651;-87
2023/09/10 16:45:12;;;;;;;9.13;7.30;;;26.10;99.90;;;;;;8233596;28;20257;-87
2023/09/10 16:49:13;;;;;;;11.07;7.75;;;26.00;99.90;;;;;;8220612;28;20479;-87
2023/09/10 16:53:13;;;;;;;9.35;8.13;;;25.70;99.90;;;;;;8232549;28;20118;-86
2023/09/10 16:57:14;;;;;;;8.55;7.65;;;25.40;99.90;;;;;;8214689;28;20023;-85
2023/09/10 17:01:17;;;;;;;8.35;7.55;;;25.10;99.90;;;;;;8236955;28;20019;-85
2023/09/10 17:05:17;;;;;;;9.05;8.15;;;25.10;99.90;;;;;;8237635;28;20153;-87
2023/09/10 17:09:18;;;;;;;8.65;7.75;;;25.00;99.90;;;;;;8235152;28;20077;-86
2023/09/10 17:13:18;;;;;;;10.95;8.43;;;25.00;99.90;;;;;;8220371;28;20503;-85
2023/09/10 17:17:19;;;;;;;9.20;8.00;;;24.70;99.90;;;;;;8218566;28;20039;-86
2023/09/10 17:21:19;;;;;;;8.07;7.30;;;24.50;99.90;;;;;;8242891;28;20054;-85
2023/09/10 17:25:20;;;;;;;10.32;8.75;;;23.80;99.90;;;;;;8228428;28;20135;-86
2023/09/10 17:29:21;;;;;;;11.70;8.35;;;23.30;99.90;;;;;;8228542;28;20403;-86
2023/09/10 17:33:22;;;;;;;12.70;8.93;;;22.90;99.90;;;;;;8227600;28;20031;-86
2023/09/10 17:37:22;;;;;;;11.82;9.68;;;22.70;99.90;;;;;;8226856;28;20050;-85
2023/09/10 17:41:23;;;;;;;10.48;9.38;;;22.60;99.90;;;;;;8229518;28;20511;-84
2023/09/10 17:45:27;;;;;;;11.07;9.25;;;22.60;99.90;;;;;;8229127;28;20085;-85
2023/09/10 17:49:27;;;;;;;10.98;9.02;;;22.40;99.90;;;;;;8241483;28;20513;-86
2023/09/10 17:53:28;;;;;;;10.50;8.85;;;22.10;99.90;;;;;;8249207;28;20031;-84
2023/09/10 17:57:28;;;;;;;12.07;10.25;;;21.90;99.90;;;;;;8242790;28;20023;-86
2023/09/10 18:01:32;;;;;;;11.80;9.82;;;22.00;99.90;;;;;;8242448;28;20459;-85
2023/09/10 18:05:33;;;;;;;10.82;9.63;;;21.90;99.90;;;;;;8226708;28;20031;-85
2023/09/10 18:09:33;;;;;;;11.43;9.80;;;21.60;99.90;;;;;;8224165;28;20664;-85
2023/09/10 18:13:34;;;;;;;12.95;9.82;;;21.40;99.90;;;;;;8238884;28;20035;-87
2023/09/10 18:17:35;;;;;;;10.27;8.20;;;21.30;99.90;;;;;;8244983;28;20034;-85
2023/09/10 18:21:36;;;;;;;12.38;9.65;;;21.20;99.90;;;;;;8223958;28;20498;-85
2023/09/10 18:25:36;;;;;;;10.98;9.45;;;21.30;99.90;;;;;;8223139;28;20034;-85
2023/09/10 18:29:40;;;;;;;11.68;9.43;;;21.10;99.90;;;;;;8219856;28;20145;-85
2023/09/10 18:33:40;;;;;;;10.85;9.63;;;21.00;99.90;;;;;;8230621;28;20019;-85
2023/09/10 18:37:41;;;;;;;10.85;9.73;;;20.90;99.90;;;;;;8233796;28;20050;-85
2023/09/10 18:41:41;;;;;;;11.32;10.00;;;20.70;99.90;;;;;;8223977;28;20527;-85
2023/09/10 18:45:42;;;;;;;10.60;9.60;;;20.70;99.90;;;;;;8222191;28;20026;-84
2023/09/10 18:49:43;;;;;;;11.75;10.45;;;20.50;99.90;;;;;;8217616;28;20027;-85
2023/09/10 18:53:44;;;;;;;11.50;10.35;;;20.40;99.90;;;;;;8222405;28;20035;-85
2023/09/10 18:57:45;;;;;;;12.27;10.35;;;20.50;99.90;;;;;;8238287;28;20031;-86
2023/09/10 19:01:46;;;;;;;12.38;10.73;;;20.30;99.90;;;;;;8224413;28;20029;-84
2023/09/10 19:05:46;;;;;;;15.00;10.95;;;20.10;99.90;;;;;;8225836;28;20038;-84
2023/09/10 19:09:48;;;;;;;13.45;11.60;;;20.10;99.90;;;;;;8243418;28;20046;-84
2023/09/10 19:13:48;;;;;;;13.32;11.93;;;19.80;99.90;;;;;;8246320;28;20023;-83
2023/09/10 19:17:50;;;;;;;13.13;11.55;;;19.70;99.90;;;;;;8232164;28;20049;-84
2023/09/10 19:21:50;;;;;;;11.55;10.45;;;19.70;99.90;;;;;;8256717;28;20062;-85
2023/09/10 19:25:51;;;;;;;12.15;10.85;;;19.40;99.90;;;;;;8243307;28;20030;-83
2023/09/10 19:29:52;;;;;;;12.88;11.57;;;19.40;99.90;;;;;;8263865;28;20069;-83
2023/09/10 19:33:52;;;;;;;14.68;13.05;;;19.40;99.90;;;;;;8237611;28;20031;-85
2023/09/10 19:37:53;;;;;;;15.73;11.95;;;19.20;99.90;;;;;;8226359;28;20038;-85
2023/09/10 19:41:54;;;;;;;13.70;11.85;;;19.30;99.90;;;;;;8224435;28;20019;-85
2023/09/10 19:45:55;;;;;;;14.65;12.52;;;19.10;99.90;;;;;;8222078;28;20080;-84
2023/09/10 19:49:56;;;;;;;16.33;13.48;;;18.90;99.90;;;;;;8223145;28;20019;-85
2023/09/10 19:53:56;;;;;;;14.77;13.07;;;18.80;99.90;;;;;;8222606;28;20037;-84
2023/09/10 19:57:57;;;;;;;17.27;14.07;;;18.80;99.90;;;;;;8221658;28;20113;-85
2023/09/10 20:01:58;;;;;;;15.80;12.43;;;18.70;99.90;;;;;;8221894;28;20299;-85
2023/09/10 20:05:58;;;;;;;16.13;12.80;;;18.60;99.90;;;;;;8237337;28;20047;-84
2023/09/10 20:09:59;;;;;;;16.15;12.48;;;18.60;99.90;;;;;;8222413;28;20570;-85
2023/09/10 20:14:01;;;;;;;15.98;13.77;;;18.70;99.90;;;;;;8237625;28;20117;-85
2023/09/10 20:18:02;;;;;;;15.27;13.63;;;18.70;99.90;;;;;;8238473;28;20023;-85
2023/09/10 20:22:03;;;;;;;15.40;13.85;;;18.40;99.90;;;;;;8237179;28;20033;-83
2023/09/10 20:26:04;;;;;;;16.45;14.65;;;18.30;99.90;;;;;;8232150;28;20052;-83
2023/09/10 20:30:05;;;;;;;16.73;15.13;;;18.20;99.90;;;;;;8238406;28;20030;-85
2023/09/10 20:34:06;;;;;;;20.35;15.52;;;18.10;99.90;;;;;;8239070;28;20394;-85
2023/09/10 20:38:07;;;;;;;17.85;14.48;;;18.00;99.90;;;;;;8222898;28;20033;-85
2023/09/10 20:42:07;;;;;;;19.35;17.02;;;17.80;99.90;;;;;;8239124;28;20019;-85
2023/09/10 20:46:08;;;;;;;18.50;16.50;;;17.90;99.90;;;;;;8223228;28;20086;-84